Data for 07/17/2006

Time Sea-Level Adjusted Pressure Absolute Pressure Temperature Relative Humidity Dew Point   
(mb) (inHg) (mb) (inHg) (C) (F) (%) (C) (F)
00:05 1024 30.24 853 25.19 20.6 69.1 38 6.1 43
00:10 1024 30.24 853 25.19 20.9 69.7 38 6.4 43.5
00:15 1024 30.24 853 25.19 20.6 69.1 40 6.7 44
00:20 1024 30.24 853 25.19 20.3 68.6 41 7 44.5
00:25 1024 30.24 853 25.19 20.2 68.3 41 6.8 44.2
00:30 1023 30.21 853 25.19 20.2 68.4 41 6.8 44.2
00:35 1023 30.21 853 25.19 20.3 68.6 39 6.1 43
00:40 1023 30.21 853 25.19 20.7 69.2 39 6.5 43.6
00:45 1023 30.21 853 25.19 20.5 68.9 40 6.6 44
00:50 1023 30.21 853 25.19 20.3 68.6 42 7.1 44.7
00:55 1023 30.21 853 25.19 20.3 68.5 41 6.6 43.9
01:00 1023 30.21 853 25.19 20.2 68.3 41 6.7 44
01:05 1023 30.21 853 25.19 20.2 68.3 40 6.4 43.5
01:10 1023 30.21 853 25.19 20.2 68.3 41 6.5 43.8
01:15 1023 30.21 853 25.19 20.1 68.2 40 6.3 43.3
01:20 1023 30.21 853 25.19 20 68 44 7.6 45.8
01:25 1023 30.21 853 25.19 19.8 67.6 42 6.6 43.9
01:30 1023 30.21 853 25.19 19.8 67.7 38 5.2 41.3
01:35 1023 30.21 853 25.19 20.5 68.8 36 5.1 41.3
01:40 1023 30.21 853 25.19 20.8 69.4 35 5 41
01:45 1023 30.21 853 25.19 21.2 70.1 33 4.6 40.2
01:50 1023 30.21 853 25.19 21.6 70.9 32 4.2 39.6
01:55 1023 30.21 853 25.19 21.9 71.4 30 3.7 38.7
02:00 1023 30.21 853 25.19 22.2 72 29 3.4 38.2
02:05 1023 30.21 853 25.19 22.4 72.3 28 3.3 38
02:10 1023 30.21 853 25.19 22.4 72.3 28 3 37.3
02:15 1023 30.21 853 25.19 22.5 72.5 27 3 37.4
02:20 1023 30.21 852 25.16 22.4 72.2 28 3.1 37.5
02:25 1023 30.21 853 25.19 22.2 71.9 29 3.4 38.1
02:30 1023 30.21 853 25.19 21.6 71 34 5.4 41.8
02:35 1023 30.21 853 25.19 20.2 68.3 41 6.6 43.9
02:40 1024 30.24 853 25.19 19.8 67.6 38 5.1 41.2
02:45 1024 30.24 853 25.19 19.8 67.6 36 4.4 39.9
02:50 1024 30.24 853 25.19 20.1 68.2 37 5.2 41.3
02:55 1024 30.24 853 25.19 20.4 68.6 35 4.7 40.5
03:00 1024 30.24 853 25.19 20.2 68.4 35 4.6 40.3
03:05 1024 30.24 853 25.19 20 68 41 6.3 43.4
03:10 1024 30.24 853 25.19 19.2 66.5 44 6.8 44.3
03:15 1024 30.24 853 25.19 18.4 65.1 46 6.8 44.3
03:20 1024 30.24 853 25.19 18.2 64.7 46 6.5 43.7
03:25 1023 30.21 853 25.19 18.7 65.7 41 5.2 41.4
03:30 1023 30.21 853 25.19 19.3 66.8 38 4.7 40.5
03:35 1023 30.21 853 25.19 19.6 67.3 39 5.6 42.1
03:40 1023 30.21 853 25.19 19.3 66.8 42 6.3 43.4
03:45 1024 30.24 853 25.19 18.7 65.6 44 6.4 43.5
03:50 1024 30.24 853 25.19 18.3 65 45 6.4 43.5
03:55 1024 30.24 853 25.19 18.3 64.9 46 6.4 43.6
04:00 1024 30.24 853 25.19 18.5 65.2 41 5 41
04:05 1024 30.24 853 25.19 19.2 66.5 41 5.7 42.3
04:10 1024 30.24 853 25.19 18.9 66 43 6.3 43.4
04:15 1024 30.24 853 25.19 18.8 65.9 43 6 42.9
04:20 1024 30.24 853 25.19 18.7 65.6 42 5.6 42.2
04:25 1024 30.24 853 25.19 18.7 65.6 45 6.7 44
04:30 1024 30.24 853 25.19 18.9 66 41 5.5 41.9
04:35 1024 30.24 853 25.19 18.7 65.6 43 6 42.7
04:40 1024 30.24 853 25.19 18.4 65.1 44 6.2 43.1
04:45 1024 30.24 853 25.19 18.6 65.5 43 5.9 42.7
04:50 1024 30.24 853 25.19 18.6 65.4 41 5.3 41.5
04:55 1024 30.24 853 25.19 18.8 65.8 41 5.3 41.5
05:00 1024 30.24 853 25.19 18.7 65.7 40 5 41.1
05:05 1024 30.24 853 25.19 19 66.2 40 5.1 41.2
05:10 1024 30.24 853 25.19 18.9 66.1 39 5 41
05:15 1024 30.24 853 25.19 18.6 65.5 42 5.7 42.3
05:20 1024 30.24 853 25.19 18.3 64.9 43 5.6 42.2
05:25 1024 30.24 853 25.19 18 64.4 44 5.6 42
05:30 1024 30.24 853 25.19 17.9 64.1 45 6 42.7
05:35 1024 30.24 853 25.19 17.8 64 45 5.7 42.3
05:40 1024 30.24 853 25.19 17.9 64.2 43 5.4 41.6
05:45 1024 30.24 853 25.19 18 64.4 42 5 40.9
05:50 1024 30.24 853 25.19 17.9 64.3 47 6.5 43.6
05:55 1024 30.24 853 25.19 17.9 64.1 44 5.5 41.8
06:00 1024 30.24 853 25.19 17.3 63.1 47 6 42.9
06:05 1024 30.24 853 25.19 17.2 63 48 6.1 43
06:10 1024 30.24 853 25.19 17.6 63.7 43 5 40.9
06:15 1024 30.24 853 25.19 17.7 63.8 43 5 41
06:20 1024 30.24 853 25.19 17.6 63.7 44 5.2 41.4
06:25 1024 30.24 853 25.19 17.8 64 42 5 40.9
06:30 1024 30.24 853 25.19 17.9 64.2 42 5 41
06:35 1024 30.24 853 25.19 17.8 64.1 45 5.7 42.3
06:40 1024 30.24 853 25.19 18.1 64.6 44 5.7 42.3
06:45 1024 30.24 853 25.19 18.2 64.7 43 5.4 41.7
06:50 1024 30.24 853 25.19 17.9 64.2 41 4.7 40.4
06:55 1024 30.24 853 25.19 18 64.4 46 6.3 43.3
07:00 1024 30.24 853 25.19 18.1 64.6 41 4.9 40.8
07:05 1024 30.24 853 25.19 18.1 64.5 44 5.6 42.1
07:10 1024 30.24 853 25.19 18.3 64.9 40 4.4 39.9
07:15 1024 30.24 853 25.19 18.6 65.4 39 4.6 40.3
07:20 1024 30.24 853 25.19 18.9 66 38 4.3 39.8
07:25 1024 30.24 853 25.19 19 66.2 41 5.7 42.2
07:30 1024 30.24 853 25.19 19.1 66.3 41 5.8 42.4
07:35 1024 30.24 853 25.19 19.1 66.4 38 4.8 40.6
07:40 1024 30.24 853 25.19 19.4 66.8 39 5 41
07:45 1024 30.24 854 25.22 19.9 67.7 35 4.2 39.6
07:50 1024 30.24 854 25.22 20.4 68.7 34 4.1 39.4
07:55 1024 30.24 854 25.22 20.5 68.9 33 4 39.1
08:00 1024 30.24 854 25.22 20.5 68.9 34 4.1 39.4
08:05 1024 30.24 854 25.22 20.5 69 34 4.3 39.8
08:10 1024 30.24 854 25.22 20.9 69.6 33 4.3 39.7
08:15 1024 30.24 854 25.22 21.2 70.1 32 4 39.3
08:20 1024 30.24 854 25.22 21.2 70.2 33 4.3 39.8
08:25 1024 30.24 854 25.22 21.4 70.6 32 4 39.3
08:30 1024 30.24 854 25.22 21.7 71.1 30 3.7 38.7
08:35 1024 30.24 854 25.22 22 71.5 31 4.1 39.4
08:40 1024 30.24 854 25.22 22.3 72.1 31 4.4 39.9
08:45 1024 30.24 854 25.22 22.5 72.4 30 4.3 39.7
08:50 1024 30.24 854 25.22 22.8 73 30 4.6 40.4
08:55 1024 30.24 854 25.22 23.1 73.6 30 5 40.9
09:00 1024 30.24 854 25.22 23.1 73.6 30 4.9 40.8
09:05 1024 30.24 854 25.22 23.2 73.8 29 4.5 40
09:10 1024 30.24 854 25.22 23.4 74 30 5.1 41.2
09:15 1024 30.24 854 25.22 23.6 74.5 31 5.7 42.3
09:20 1024 30.24 854 25.22 24.2 75.5 29 5 41
09:25 1024 30.24 854 25.22 24.2 75.5 29 5.4 41.7
09:30 1024 30.24 854 25.22 23.8 74.9 31 5.8 42.4
09:35 1024 30.24 853 25.19 23.9 75.1 29 5.2 41.3
09:40 1024 30.24 853 25.19 24.2 75.6 29 5.2 41.3
09:45 1024 30.24 853 25.19 24.6 76.3 27 4.7 40.5
09:50 1024 30.24 853 25.19 25 76.9 26 4.5 40.1
09:55 1024 30.24 853 25.19 25.3 77.6 27 5.1 41.1
10:00 1024 30.24 853 25.19 25.7 78.3 26 5.2 41.4
10:05 1024 30.24 853 25.19 26.6 79.8 26 5.5 41.9
10:10 1024 30.24 853 25.19 27.1 80.9 25 5.6 42.1
10:15 1024 30.24 853 25.19 26.7 80.1 25 5.6 42.1
10:20 1024 30.24 853 25.19 26.6 79.9 26 5.6 42.1
10:25 1024 30.24 853 25.19 26.3 79.4 26 5.4 41.7
10:30 1024 30.24 853 25.19 27 80.7 24 4.9 40.8
10:35 1024 30.24 853 25.19 27 80.6 24 5.1 41.1
10:40 1024 30.24 853 25.19 26.7 80.1 25 5.1 41.2
10:45 1024 30.24 853 25.19 27.1 80.7 24 4.9 40.8
10:50 1024 30.24 853 25.19 27.5 81.5 24 5.7 42.2
10:55 1024 30.24 853 25.19 28.3 83 22 5 41
11:00 1024 30.24 853 25.19 28.3 83 24 6 42.7
11:05 1024 30.24 853 25.19 27.5 81.4 26 6.4 43.6
11:10 1024 30.24 853 25.19 27.5 81.4 26 6.5 43.8
11:15 1024 30.24 853 25.19 27.3 81.2 27 7.2 44.9
11:20 1024 30.24 853 25.19 28.1 82.6 25 6.7 44.1
11:25 1024 30.24 853 25.19 28.4 83 25 6.5 43.7
11:30 1024 30.24 853 25.19 28.8 83.8 25 7.1 44.7
11:35 1024 30.24 853 25.19 28.8 83.9 25 7.3 45.1
11:40 1024 30.24 853 25.19 29.2 84.5 24 6.8 44.2
11:45 1023 30.21 853 25.19 28.5 83.3 26 7.3 45.1
11:50 1023 30.21 853 25.19 28.7 83.6 24 6.6 43.9
11:55 1023 30.21 853 25.19 27.7 81.8 25 6.4 43.5
12:00 1023 30.21 852 25.16 27.8 82.1 24 5.5 41.8
12:05 1023 30.21 852 25.16 29 84.2 23 5.9 42.7
12:10 1023 30.21 852 25.16 30 86 22 6.3 43.4
12:15 1023 30.21 852 25.16 30.3 86.5 22 6.7 44
12:20 1023 30.21 852 25.16 29.6 85.4 21 5.6 42.1
12:25 1023 30.21 852 25.16 29 84.2 22 5.4 41.8
12:30 1023 30.21 852 25.16 29.9 85.9 22 6 42.8
12:35 1023 30.21 852 25.16 30.3 86.6 21 5.9 42.5
12:40 1023 30.21 852 25.16 30.1 86.1 20 4.9 40.9
12:45 1023 30.21 852 25.16 29 84.2 22 5.4 41.7
12:50 1023 30.21 852 25.16 29.5 85.1 20 4.5 40.2
12:55 1023 30.21 852 25.16 30.5 86.8 21 6 42.8
13:00 1022 30.18 852 25.16 31.3 88.4 20 5.9 42.7
13:05 1022 30.18 852 25.16 31.5 88.7 21 6.9 44.4
13:10 1022 30.18 852 25.16 30.9 87.7 20 5.9 42.7
13:15 1022 30.18 852 25.16 31.5 88.8 20 6 42.9
13:20 1022 30.18 851 25.13 31.8 89.2 19 5.8 42.4
13:25 1022 30.18 851 25.13 31.8 89.2 19 5.7 42.3
13:30 1022 30.18 851 25.13 31.8 89.3 19 5.9 42.7
13:35 1022 30.18 851 25.13 32.2 90 20 6.8 44.2
13:40 1022 30.18 851 25.13 32.6 90.7 18 5.4 41.8
13:45 1022 30.18 851 25.13 32.4 90.3 17 5 40.9
13:50 1022 30.18 851 25.13 33.1 91.5 18 6 42.8
13:55 1022 30.18 851 25.13 32.3 90.1 19 6.4 43.5
14:00 1022 30.18 851 25.13 31.7 89.1 21 7 44.5
14:05 1022 30.18 851 25.13 32.1 89.9 18 5.2 41.4
14:10 1022 30.18 851 25.13 32.5 90.5 18 5.6 42.1
14:15 1021 30.15 851 25.13 32.4 90.3 19 6.3 43.3
14:20 1021 30.15 851 25.13 32.8 91 17 5.3 41.6
14:25 1021 30.15 850 25.1 32.9 91.3 18 5.8 42.5
14:30 1021 30.15 850 25.1 32.6 90.6 18 5.7 42.3
14:35 1021 30.15 850 25.1 31.6 88.8 19 5.6 42
14:40 1021 30.15 850 25.1 32.6 90.7 18 5.6 42.1
14:45 1021 30.15 850 25.1 33.3 91.9 18 6.5 43.7
14:50 1021 30.15 850 25.1 33.7 92.6 15 4.2 39.6
14:55 1021 30.15 850 25.1 33.6 92.4 16 4.9 40.7
15:00 1021 30.15 850 25.1 33 91.4 16 4.3 39.7
15:05 1021 30.15 850 25.1 32.8 91.1 16 4.5 40.1
15:10 1021 30.15 850 25.1 33.3 92 18 5.9 42.6
15:15 1021 30.15 850 25.1 33.6 92.5 17 5.7 42.2
15:20 1021 30.15 850 25.1 33.9 93.1 16 4.6 40.4
15:25 1020 30.12 850 25.1 34.6 94.2 16 5.2 41.3
15:30 1020 30.12 850 25.1 34.4 93.9 16 5 41
15:35 1020 30.12 850 25.1 33.9 93 15 3.9 39
15:40 1020 30.12 849 25.07 33.5 92.3 15 4.2 39.6
15:45 1020 30.12 849 25.07 34 93.2 15 4.4 39.8
15:50 1020 30.12 849 25.07 34.2 93.6 14 3.5 38.3
15:55 1020 30.12 849 25.07 34.4 93.9 14 3.9 39
16:00 1020 30.12 849 25.07 34.3 93.7 14 3.9 39
16:05 1020 30.12 849 25.07 34.1 93.3 15 4.3 39.7
16:10 1020 30.12 849 25.07 34.6 94.2 14 4 39.3
16:15 1020 30.12 849 25.07 34.4 93.9 14 3.6 38.6
16:20 1020 30.12 849 25.07 34.4 93.9 14 3.7 38.7
16:25 1020 30.12 849 25.07 34.2 93.6 13 2.7 36.8
16:30 1020 30.12 849 25.07 34.1 93.3 14 2.8 37.1
16:35 1020 30.12 849 25.07 33.5 92.2 14 2.4 36.2
16:40 1019 30.09 849 25.07 34.1 93.4 13 2.3 36.1
16:45 1019 30.09 849 25.07 34.7 94.4 13 2.9 37.2
16:50 1019 30.09 849 25.07 34.2 93.5 13 2.4 36.3
16:55 1019 30.09 849 25.07 34.1 93.4 14 3.5 38.3
17:00 1019 30.09 849 25.07 34.2 93.5 13 2.7 36.8
17:05 1019 30.09 849 25.07 34.2 93.5 14 3.5 38.2
17:10 1019 30.09 849 25.07 34.2 93.6 14 3.1 37.6
17:15 1019 30.09 848 25.04 34.5 94.2 13 2.3 36.1
17:20 1019 30.09 848 25.04 34.3 93.7 13 2.4 36.3
17:25 1019 30.09 848 25.04 33.9 92.9 13 1.7 35
17:30 1019 30.09 848 25.04 33.9 93 13 1.6 34.9
17:35 1019 30.09 848 25.04 33.4 92.1 13 1.7 35.1
17:40 1019 30.09 848 25.04 33.3 91.9 13 1.1 33.9
17:45 1019 30.09 848 25.04 33.4 92.1 13 1.1 34
17:50 1019 30.09 848 25.04 33.5 92.3 13 1.5 34.8
17:55 1019 30.09 848 25.04 33.9 92.9 13 1.8 35.2
18:00 1019 30.09 848 25.04 33.9 93 13 2.3 36.1
18:05 1018 30.06 848 25.04 34.1 93.3 13 1.8 35.2
18:10 1018 30.06 848 25.04 33.7 92.7 13 1.9 35.5
18:15 1018 30.06 848 25.04 33.6 92.4 14 2.6 36.7
18:20 1018 30.06 848 25.04 33.6 92.6 13 1.9 35.5
18:25 1018 30.06 847 25.01 33.6 92.6 13 1.5 34.6
18:30 1018 30.06 847 25.01 33.5 92.3 13 2.1 35.7
18:35 1018 30.06 847 25.01 33.3 91.9 13 2 35.6
18:40 1018 30.06 847 25.01 33.3 92 13 1.7 35
18:45 1018 30.06 847 25.01 33.4 92.1 13 2 35.5
18:50 1018 30.06 847 25.01 33.4 92 13 1.8 35.2
18:55 1018 30.06 847 25.01 33.4 92.1 13 1.9 35.4
19:00 1018 30.06 847 25.01 33.4 92 13 1.5 34.7
19:05 1018 30.06 847 25.01 33.2 91.8 13 1.8 35.3
19:10 1018 30.06 847 25.01 33.3 92 14 2.6 36.6
19:15 1018 30.06 847 25.01 33.3 91.9 14 2.2 36
19:20 1018 30.06 847 25.01 33.2 91.7 14 2.4 36.3
19:25 1018 30.06 847 25.01 32.8 91.1 14 2 35.7
19:30 1018 30.06 847 25.01 32.4 90.4 14 2.1 35.7
19:35 1018 30.06 847 25.01 32.2 90 15 3.2 37.7
19:40 1018 30.06 847 25.01 32.1 89.9 14 1.6 34.9
19:45 1018 30.06 847 25.01 31.9 89.5 17 4.5 40
19:50 1018 30.06 847 25.01 31.4 88.6 18 4.9 40.7
19:55 1018 30.06 847 25.01 31.2 88.1 19 5.1 41.2
20:00 1018 30.06 847 25.01 31 87.7 18 4.5 40.1
20:05 1018 30.06 847 25.01 30.7 87.3 19 4.9 40.9
20:10 1018 30.06 847 25.01 30.6 87.1 19 4.9 40.8
20:15 1018 30.06 847 25.01 30.4 86.8 19 4.2 39.6
20:20 1018 30.06 847 25.01 30.4 86.7 18 4.2 39.5
20:25 1018 30.06 847 25.01 30.1 86.1 21 5.7 42.3
20:30 1018 30.06 847 25.01 30 85.9 18 3.4 38.2
20:35 1018 30.06 847 25.01 30 86 19 4.5 40.1
20:40 1018 30.06 847 25.01 29.4 85 23 6.4 43.6
20:45 1018 30.06 847 25.01 28.7 83.6 23 5.7 42.3
20:50 1018 30.06 847 25.01 28.3 82.9 22 4.8 40.7
20:55 1018 30.06 847 25.01 28.4 83.1 22 5.2 41.4
21:00 1018 30.06 847 25.01 28.1 82.6 26 6.9 44.5
21:05 1018 30.06 847 25.01 27.4 81.3 29 8 46.4
21:10 1018 30.06 848 25.04 27.1 80.8 26 6.4 43.6
21:15 1018 30.06 848 25.04 27.5 81.5 24 5.3 41.6
21:20 1018 30.06 847 25.01 27.8 82 23 5.2 41.3
21:25 1018 30.06 847 25.01 27.6 81.7 28 7.8 46
21:30 1018 30.06 847 25.01 26.7 80.1 28 6.8 44.3
21:35 1018 30.06 848 25.04 26.5 79.7 27 6.3 43.3
21:40 1018 30.06 848 25.04 26.6 79.8 26 5.9 42.6
21:45 1018 30.06 847 25.01 26.3 79.3 27 6.3 43.4
21:50 1018 30.06 848 25.04 26 78.7 28 6.1 43
21:55 1018 30.06 848 25.04 26.1 79 27 5.7 42.2
22:00 1018 30.06 848 25.04 26.4 79.5 26 5.4 41.8
22:05 1018 30.06 848 25.04 26.5 79.6 25 5.1 41.1
22:10 1018 30.06 848 25.04 26.3 79.3 28 6.5 43.7
22:15 1018 30.06 848 25.04 25.5 78 27 5.4 41.7
22:20 1018 30.06 848 25.04 25.9 78.6 26 5.4 41.7
22:25 1019 30.09 848 25.04 26 78.8 29 6.7 44
22:30 1019 30.09 848 25.04 25.8 78.4 29 6.6 43.9
22:35 1019 30.09 848 25.04 25.5 77.9 29 6.6 43.9
22:40 1019 30.09 848 25.04 25.5 77.9 28 6.1 43
22:45 1019 30.09 848 25.04 25.8 78.5 27 5.7 42.3
22:50 1018 30.06 848 25.04 26.3 79.3 28 6.7 44
22:55 1018 30.06 847 25.01 26.2 79.2 29 6.9 44.4
23:00 1018 30.06 847 25.01 25.3 77.5 25 4.2 39.5
23:05 1018 30.06 847 25.01 25.2 77.3 33 7.8 46
23:10 1018 30.06 848 25.04 24.5 76.2 33 7.3 45.1
23:15 1018 30.06 848 25.04 24 75.3 33 6.9 44.5
23:20 1019 30.09 848 25.04 24.2 75.5 31 6.3 43.4
23:25 1019 30.09 848 25.04 24.2 75.6 32 6.6 43.8
23:30 1019 30.09 848 25.04 24.2 75.5 30 5.9 42.6
23:35 1019 30.09 848 25.04 24.2 75.5 30 5.8 42.4
23:40 1019 30.09 848 25.04 24.3 75.7 31 6.5 43.7
23:45 1019 30.09 848 25.04 23.8 74.8 34 7 44.6
23:50 1019 30.09 848 25.04 23.1 73.6 34 6.6 43.9
23:55 1019 30.09 848 25.04 23 73.4 34 6.4 43.6
24:00 1019 30.09 848 25.04 22.5 72.4 39 7.9 46.2